sensor_id;sensor_type;location;lat;lon;timestamp;P1;durP1;ratioP1;P2;durP2;ratioP2
11510;SDS011;5812;48.864;9.190;2023-04-08T00:00:20;10.03;;;10.03;;
11510;SDS011;5812;48.864;9.190;2023-04-08T00:02:45;9.67;;;9.67;;
11510;SDS011;5812;48.864;9.190;2023-04-08T00:05:11;9.93;;;9.93;;
11510;SDS011;5812;48.864;9.190;2023-04-08T00:07:37;9.30;;;9.30;;
11510;SDS011;5812;48.864;9.190;2023-04-08T00:10:02;9.70;;;9.70;;
11510;SDS011;5812;48.864;9.190;2023-04-08T00:12:28;9.47;;;9.47;;
11510;SDS011;5812;48.864;9.190;2023-04-08T00:14:54;9.60;;;9.60;;
11510;SDS011;5812;48.864;9.190;2023-04-08T00:17:19;9.20;;;9.20;;
11510;SDS011;5812;48.864;9.190;2023-04-08T00:19:45;9.03;;;9.03;;
11510;SDS011;5812;48.864;9.190;2023-04-08T00:22:11;10.57;;;10.57;;
11510;SDS011;5812;48.864;9.190;2023-04-08T00:24:36;10.63;;;10.63;;
11510;SDS011;5812;48.864;9.190;2023-04-08T00:27:02;10.50;;;10.50;;
11510;SDS011;5812;48.864;9.190;2023-04-08T00:29:28;9.73;;;9.73;;
11510;SDS011;5812;48.864;9.190;2023-04-08T00:31:54;10.30;;;10.30;;
11510;SDS011;5812;48.864;9.190;2023-04-08T00:34:20;10.50;;;10.50;;
11510;SDS011;5812;48.864;9.190;2023-04-08T00:36:46;10.03;;;10.03;;
11510;SDS011;5812;48.864;9.190;2023-04-08T00:39:12;10.70;;;10.70;;
11510;SDS011;5812;48.864;9.190;2023-04-08T00:41:38;10.70;;;10.70;;
11510;SDS011;5812;48.864;9.190;2023-04-08T00:44:04;11.13;;;11.13;;
11510;SDS011;5812;48.864;9.190;2023-04-08T00:46:30;10.37;;;10.37;;
11510;SDS011;5812;48.864;9.190;2023-04-08T00:49:00;10.53;;;10.53;;
11510;SDS011;5812;48.864;9.190;2023-04-08T00:51:27;10.53;;;10.53;;
11510;SDS011;5812;48.864;9.190;2023-04-08T00:53:53;11.20;;;11.20;;
11510;SDS011;5812;48.864;9.190;2023-04-08T00:56:19;11.70;;;11.70;;
11510;SDS011;5812;48.864;9.190;2023-04-08T00:58:45;11.13;;;11.13;;
11510;SDS011;5812;48.864;9.190;2023-04-08T01:01:13;10.27;;;10.27;;
11510;SDS011;5812;48.864;9.190;2023-04-08T01:06:28;10.73;;;10.73;;
11510;SDS011;5812;48.864;9.190;2023-04-08T01:09:06;10.33;;;10.33;;
11510;SDS011;5812;48.864;9.190;2023-04-08T01:11:34;11.50;;;11.50;;
11510;SDS011;5812;48.864;9.190;2023-04-08T01:14:03;11.80;;;11.80;;
11510;SDS011;5812;48.864;9.190;2023-04-08T01:16:34;11.90;;;11.90;;
11510;SDS011;5812;48.864;9.190;2023-04-08T01:19:02;11.40;;;11.40;;
11510;SDS011;5812;48.864;9.190;2023-04-08T01:21:32;10.80;;;10.80;;
11510;SDS011;5812;48.864;9.190;2023-04-08T01:26:40;11.23;;;11.23;;
11510;SDS011;5812;48.864;9.190;2023-04-08T01:29:07;10.47;;;10.47;;
11510;SDS011;5812;48.864;9.190;2023-04-08T01:31:34;10.37;;;10.37;;
11510;SDS011;5812;48.864;9.190;2023-04-08T01:34:00;10.23;;;10.23;;
11510;SDS011;5812;48.864;9.190;2023-04-08T01:36:28;10.80;;;10.80;;
11510;SDS011;5812;48.864;9.190;2023-04-08T01:38:56;10.17;;;10.17;;
11510;SDS011;5812;48.864;9.190;2023-04-08T01:41:24;10.13;;;10.13;;
11510;SDS011;5812;48.864;9.190;2023-04-08T01:43:50;10.23;;;10.23;;
11510;SDS011;5812;48.864;9.190;2023-04-08T01:46:16;10.77;;;10.77;;
11510;SDS011;5812;48.864;9.190;2023-04-08T01:48:42;11.13;;;11.13;;
11510;SDS011;5812;48.864;9.190;2023-04-08T01:51:09;10.77;;;10.77;;
11510;SDS011;5812;48.864;9.190;2023-04-08T01:53:36;11.60;;;11.60;;
11510;SDS011;5812;48.864;9.190;2023-04-08T01:56:06;10.90;;;10.90;;
11510;SDS011;5812;48.864;9.190;2023-04-08T01:58:36;10.90;;;10.90;;
11510;SDS011;5812;48.864;9.190;2023-04-08T02:01:05;12.33;;;12.33;;
11510;SDS011;5812;48.864;9.190;2023-04-08T02:03:38;12.30;;;12.30;;
11510;SDS011;5812;48.864;9.190;2023-04-08T02:06:06;12.50;;;12.50;;
11510;SDS011;5812;48.864;9.190;2023-04-08T02:08:33;12.20;;;12.20;;
11510;SDS011;5812;48.864;9.190;2023-04-08T02:11:00;12.10;;;12.10;;
11510;SDS011;5812;48.864;9.190;2023-04-08T02:13:26;11.87;;;11.87;;
11510;SDS011;5812;48.864;9.190;2023-04-08T02:15:56;13.10;;;13.10;;
11510;SDS011;5812;48.864;9.190;2023-04-08T02:18:25;13.00;;;13.00;;
11510;SDS011;5812;48.864;9.190;2023-04-08T02:20:56;12.27;;;12.27;;
11510;SDS011;5812;48.864;9.190;2023-04-08T02:23:37;12.23;;;12.23;;
11510;SDS011;5812;48.864;9.190;2023-04-08T02:26:06;12.50;;;12.50;;
11510;SDS011;5812;48.864;9.190;2023-04-08T02:28:36;11.90;;;11.90;;
11510;SDS011;5812;48.864;9.190;2023-04-08T02:31:04;13.20;;;13.20;;
11510;SDS011;5812;48.864;9.190;2023-04-08T02:33:32;12.60;;;12.53;;
11510;SDS011;5812;48.864;9.190;2023-04-08T02:35:59;12.97;;;12.97;;
11510;SDS011;5812;48.864;9.190;2023-04-08T02:38:26;13.10;;;13.00;;
11510;SDS011;5812;48.864;9.190;2023-04-08T02:40:54;12.53;;;12.53;;
11510;SDS011;5812;48.864;9.190;2023-04-08T02:43:20;11.93;;;11.93;;
11510;SDS011;5812;48.864;9.190;2023-04-08T02:45:46;12.43;;;12.43;;
11510;SDS011;5812;48.864;9.190;2023-04-08T02:48:11;12.43;;;12.43;;
11510;SDS011;5812;48.864;9.190;2023-04-08T02:50:37;12.73;;;12.73;;
11510;SDS011;5812;48.864;9.190;2023-04-08T02:53:04;13.00;;;13.00;;
11510;SDS011;5812;48.864;9.190;2023-04-08T02:55:30;12.67;;;12.57;;
11510;SDS011;5812;48.864;9.190;2023-04-08T02:57:55;13.83;;;13.73;;
11510;SDS011;5812;48.864;9.190;2023-04-08T03:00:21;13.43;;;13.43;;
11510;SDS011;5812;48.864;9.190;2023-04-08T03:02:46;13.77;;;13.67;;
11510;SDS011;5812;48.864;9.190;2023-04-08T03:05:12;14.20;;;14.10;;
11510;SDS011;5812;48.864;9.190;2023-04-08T03:07:38;14.77;;;14.67;;
11510;SDS011;5812;48.864;9.190;2023-04-08T03:10:03;14.83;;;14.73;;
11510;SDS011;5812;48.864;9.190;2023-04-08T03:12:30;14.23;;;14.13;;
11510;SDS011;5812;48.864;9.190;2023-04-08T03:14:55;14.80;;;14.70;;
11510;SDS011;5812;48.864;9.190;2023-04-08T03:17:21;15.70;;;15.60;;
11510;SDS011;5812;48.864;9.190;2023-04-08T03:19:46;15.77;;;15.67;;
11510;SDS011;5812;48.864;9.190;2023-04-08T03:22:12;15.30;;;15.20;;
11510;SDS011;5812;48.864;9.190;2023-04-08T03:24:38;15.47;;;15.37;;
11510;SDS011;5812;48.864;9.190;2023-04-08T03:27:04;15.37;;;15.27;;
11510;SDS011;5812;48.864;9.190;2023-04-08T03:29:29;16.47;;;16.37;;
11510;SDS011;5812;48.864;9.190;2023-04-08T03:31:55;15.70;;;15.60;;
11510;SDS011;5812;48.864;9.190;2023-04-08T03:34:21;14.73;;;14.63;;
11510;SDS011;5812;48.864;9.190;2023-04-08T03:36:46;15.00;;;14.90;;
11510;SDS011;5812;48.864;9.190;2023-04-08T03:39:12;14.40;;;14.30;;
11510;SDS011;5812;48.864;9.190;2023-04-08T03:41:38;14.97;;;14.87;;
11510;SDS011;5812;48.864;9.190;2023-04-08T03:44:03;14.83;;;14.73;;
11510;SDS011;5812;48.864;9.190;2023-04-08T03:46:29;15.37;;;15.27;;
11510;SDS011;5812;48.864;9.190;2023-04-08T03:48:55;15.70;;;15.60;;
11510;SDS011;5812;48.864;9.190;2023-04-08T03:51:20;15.00;;;14.90;;
11510;SDS011;5812;48.864;9.190;2023-04-08T03:53:46;15.63;;;15.53;;
11510;SDS011;5812;48.864;9.190;2023-04-08T03:56:13;16.30;;;16.20;;
11510;SDS011;5812;48.864;9.190;2023-04-08T03:58:38;15.00;;;14.90;;
11510;SDS011;5812;48.864;9.190;2023-04-08T04:01:04;15.83;;;15.73;;
11510;SDS011;5812;48.864;9.190;2023-04-08T04:03:30;16.00;;;15.90;;
11510;SDS011;5812;48.864;9.190;2023-04-08T04:05:55;16.23;;;16.13;;
11510;SDS011;5812;48.864;9.190;2023-04-08T04:08:21;14.57;;;14.47;;
11510;SDS011;5812;48.864;9.190;2023-04-08T04:10:46;16.40;;;16.30;;
11510;SDS011;5812;48.864;9.190;2023-04-08T04:13:12;16.00;;;15.90;;
11510;SDS011;5812;48.864;9.190;2023-04-08T04:15:38;16.60;;;16.50;;
11510;SDS011;5812;48.864;9.190;2023-04-08T04:18:05;15.93;;;15.83;;
11510;SDS011;5812;48.864;9.190;2023-04-08T04:20:31;17.27;;;17.17;;
11510;SDS011;5812;48.864;9.190;2023-04-08T04:22:56;17.43;;;17.33;;
11510;SDS011;5812;48.864;9.190;2023-04-08T04:25:22;16.90;;;16.80;;
11510;SDS011;5812;48.864;9.190;2023-04-08T04:27:48;17.20;;;17.10;;
11510;SDS011;5812;48.864;9.190;2023-04-08T04:30:14;17.97;;;17.87;;
11510;SDS011;5812;48.864;9.190;2023-04-08T04:32:42;17.27;;;17.17;;
11510;SDS011;5812;48.864;9.190;2023-04-08T04:35:09;17.63;;;17.53;;
11510;SDS011;5812;48.864;9.190;2023-04-08T04:37:35;18.83;;;18.73;;
11510;SDS011;5812;48.864;9.190;2023-04-08T04:40:01;18.33;;;18.23;;
11510;SDS011;5812;48.864;9.190;2023-04-08T04:42:27;18.40;;;18.30;;
11510;SDS011;5812;48.864;9.190;2023-04-08T04:44:53;17.43;;;17.33;;
11510;SDS011;5812;48.864;9.190;2023-04-08T04:47:18;17.67;;;17.57;;
11510;SDS011;5812;48.864;9.190;2023-04-08T04:49:44;19.20;;;19.00;;
11510;SDS011;5812;48.864;9.190;2023-04-08T04:52:10;18.50;;;18.40;;
11510;SDS011;5812;48.864;9.190;2023-04-08T04:54:36;19.07;;;18.97;;
11510;SDS011;5812;48.864;9.190;2023-04-08T04:57:01;18.60;;;18.50;;
11510;SDS011;5812;48.864;9.190;2023-04-08T04:59:27;19.20;;;19.10;;
11510;SDS011;5812;48.864;9.190;2023-04-08T05:01:53;20.83;;;20.73;;
11510;SDS011;5812;48.864;9.190;2023-04-08T05:04:21;19.83;;;19.73;;
11510;SDS011;5812;48.864;9.190;2023-04-08T05:06:47;20.53;;;20.43;;
11510;SDS011;5812;48.864;9.190;2023-04-08T05:09:13;18.83;;;18.73;;
11510;SDS011;5812;48.864;9.190;2023-04-08T05:11:38;20.37;;;20.27;;
11510;SDS011;5812;48.864;9.190;2023-04-08T05:14:04;21.03;;;20.83;;
11510;SDS011;5812;48.864;9.190;2023-04-08T05:16:30;20.07;;;19.93;;
11510;SDS011;5812;48.864;9.190;2023-04-08T05:18:56;19.73;;;19.63;;
11510;SDS011;5812;48.864;9.190;2023-04-08T05:21:22;19.93;;;19.83;;
11510;SDS011;5812;48.864;9.190;2023-04-08T05:23:48;18.73;;;18.63;;
11510;SDS011;5812;48.864;9.190;2023-04-08T05:26:16;19.00;;;18.90;;
11510;SDS011;5812;48.864;9.190;2023-04-08T05:28:48;19.03;;;18.93;;
11510;SDS011;5812;48.864;9.190;2023-04-08T05:31:17;20.87;;;20.73;;
11510;SDS011;5812;48.864;9.190;2023-04-08T05:33:43;21.57;;;21.37;;
11510;SDS011;5812;48.864;9.190;2023-04-08T05:36:10;21.20;;;21.00;;
11510;SDS011;5812;48.864;9.190;2023-04-08T05:38:36;21.87;;;21.67;;
11510;SDS011;5812;48.864;9.190;2023-04-08T05:41:02;22.50;;;22.30;;
11510;SDS011;5812;48.864;9.190;2023-04-08T05:43:28;21.97;;;21.77;;
11510;SDS011;5812;48.864;9.190;2023-04-08T05:45:53;23.77;;;23.57;;
11510;SDS011;5812;48.864;9.190;2023-04-08T05:48:19;23.77;;;23.57;;
11510;SDS011;5812;48.864;9.190;2023-04-08T05:50:45;22.93;;;22.73;;
11510;SDS011;5812;48.864;9.190;2023-04-08T05:53:12;23.23;;;23.03;;
11510;SDS011;5812;48.864;9.190;2023-04-08T05:55:38;22.83;;;22.63;;
11510;SDS011;5812;48.864;9.190;2023-04-08T05:58:04;22.70;;;22.50;;
11510;SDS011;5812;48.864;9.190;2023-04-08T06:00:30;24.43;;;24.23;;
11510;SDS011;5812;48.864;9.190;2023-04-08T06:02:56;22.87;;;22.67;;
11510;SDS011;5812;48.864;9.190;2023-04-08T06:05:21;22.57;;;22.37;;
11510;SDS011;5812;48.864;9.190;2023-04-08T06:07:47;23.00;;;22.80;;
11510;SDS011;5812;48.864;9.190;2023-04-08T06:10:13;23.43;;;23.23;;
11510;SDS011;5812;48.864;9.190;2023-04-08T06:12:38;21.77;;;21.67;;
11510;SDS011;5812;48.864;9.190;2023-04-08T06:15:04;23.50;;;23.30;;
11510;SDS011;5812;48.864;9.190;2023-04-08T06:17:31;22.13;;;22.03;;
11510;SDS011;5812;48.864;9.190;2023-04-08T06:19:56;24.13;;;23.93;;
11510;SDS011;5812;48.864;9.190;2023-04-08T06:22:22;24.47;;;24.27;;
11510;SDS011;5812;48.864;9.190;2023-04-08T06:24:47;22.63;;;22.53;;
11510;SDS011;5812;48.864;9.190;2023-04-08T06:27:13;22.73;;;22.63;;
11510;SDS011;5812;48.864;9.190;2023-04-08T06:29:39;22.00;;;21.90;;
11510;SDS011;5812;48.864;9.190;2023-04-08T06:32:05;23.80;;;23.60;;
11510;SDS011;5812;48.864;9.190;2023-04-08T06:34:31;20.80;;;20.70;;
11510;SDS011;5812;48.864;9.190;2023-04-08T06:36:56;21.90;;;21.80;;
11510;SDS011;5812;48.864;9.190;2023-04-08T06:39:22;21.70;;;21.60;;
11510;SDS011;5812;48.864;9.190;2023-04-08T06:41:48;20.03;;;19.93;;
11510;SDS011;5812;48.864;9.190;2023-04-08T06:44:14;17.97;;;17.87;;
11510;SDS011;5812;48.864;9.190;2023-04-08T06:46:39;18.43;;;18.33;;
11510;SDS011;5812;48.864;9.190;2023-04-08T06:49:05;17.43;;;17.33;;
11510;SDS011;5812;48.864;9.190;2023-04-08T06:51:31;17.10;;;17.00;;
11510;SDS011;5812;48.864;9.190;2023-04-08T06:53:56;16.53;;;16.43;;
11510;SDS011;5812;48.864;9.190;2023-04-08T06:56:22;15.40;;;15.30;;
11510;SDS011;5812;48.864;9.190;2023-04-08T06:58:50;14.80;;;14.70;;
11510;SDS011;5812;48.864;9.190;2023-04-08T07:01:16;14.07;;;14.00;;
11510;SDS011;5812;48.864;9.190;2023-04-08T07:03:41;14.13;;;14.13;;
11510;SDS011;5812;48.864;9.190;2023-04-08T07:06:07;15.17;;;15.07;;
11510;SDS011;5812;48.864;9.190;2023-04-08T07:08:33;14.30;;;14.30;;
11510;SDS011;5812;48.864;9.190;2023-04-08T07:10:59;14.50;;;14.40;;
11510;SDS011;5812;48.864;9.190;2023-04-08T07:13:24;14.87;;;14.77;;
11510;SDS011;5812;48.864;9.190;2023-04-08T07:15:50;13.20;;;13.10;;
11510;SDS011;5812;48.864;9.190;2023-04-08T07:18:16;12.17;;;12.17;;
11510;SDS011;5812;48.864;9.190;2023-04-08T07:20:41;11.30;;;11.30;;
11510;SDS011;5812;48.864;9.190;2023-04-08T07:23:07;12.43;;;12.43;;
11510;SDS011;5812;48.864;9.190;2023-04-08T07:25:33;11.47;;;11.47;;
11510;SDS011;5812;48.864;9.190;2023-04-08T07:28:01;11.00;;;11.00;;
11510;SDS011;5812;48.864;9.190;2023-04-08T07:30:27;10.90;;;10.90;;
11510;SDS011;5812;48.864;9.190;2023-04-08T07:32:53;10.10;;;10.10;;
11510;SDS011;5812;48.864;9.190;2023-04-08T07:35:19;10.90;;;10.90;;
11510;SDS011;5812;48.864;9.190;2023-04-08T07:37:48;11.63;;;11.63;;
11510;SDS011;5812;48.864;9.190;2023-04-08T07:40:17;10.83;;;10.83;;
11510;SDS011;5812;48.864;9.190;2023-04-08T07:42:43;10.70;;;10.70;;
11510;SDS011;5812;48.864;9.190;2023-04-08T07:45:09;10.03;;;10.03;;
11510;SDS011;5812;48.864;9.190;2023-04-08T07:47:34;10.13;;;10.13;;
11510;SDS011;5812;48.864;9.190;2023-04-08T07:50:01;10.10;;;10.10;;
11510;SDS011;5812;48.864;9.190;2023-04-08T07:52:26;11.13;;;11.13;;
11510;SDS011;5812;48.864;9.190;2023-04-08T07:54:53;9.90;;;9.90;;
11510;SDS011;5812;48.864;9.190;2023-04-08T07:57:19;10.10;;;10.10;;
11510;SDS011;5812;48.864;9.190;2023-04-08T07:59:45;9.67;;;9.67;;
11510;SDS011;5812;48.864;9.190;2023-04-08T08:02:10;9.70;;;9.70;;
11510;SDS011;5812;48.864;9.190;2023-04-08T08:04:36;9.97;;;9.97;;
11510;SDS011;5812;48.864;9.190;2023-04-08T08:07:02;9.67;;;9.67;;
11510;SDS011;5812;48.864;9.190;2023-04-08T08:09:27;9.10;;;9.10;;
11510;SDS011;5812;48.864;9.190;2023-04-08T08:11:53;9.33;;;9.33;;
11510;SDS011;5812;48.864;9.190;2023-04-08T08:14:18;10.10;;;10.10;;
11510;SDS011;5812;48.864;9.190;2023-04-08T08:16:44;9.00;;;9.00;;
11510;SDS011;5812;48.864;9.190;2023-04-08T08:19:10;9.00;;;9.00;;
11510;SDS011;5812;48.864;9.190;2023-04-08T08:21:37;9.03;;;9.03;;
11510;SDS011;5812;48.864;9.190;2023-04-08T08:24:03;8.63;;;8.63;;
11510;SDS011;5812;48.864;9.190;2023-04-08T08:26:29;9.43;;;9.43;;
11510;SDS011;5812;48.864;9.190;2023-04-08T08:28:55;9.50;;;9.50;;
11510;SDS011;5812;48.864;9.190;2023-04-08T08:31:20;8.73;;;8.73;;
11510;SDS011;5812;48.864;9.190;2023-04-08T08:33:46;8.50;;;8.50;;
11510;SDS011;5812;48.864;9.190;2023-04-08T08:36:12;9.13;;;9.13;;
11510;SDS011;5812;48.864;9.190;2023-04-08T08:38:37;8.83;;;8.83;;
11510;SDS011;5812;48.864;9.190;2023-04-08T08:41:03;8.70;;;8.70;;
11510;SDS011;5812;48.864;9.190;2023-04-08T08:43:29;9.50;;;9.50;;
11510;SDS011;5812;48.864;9.190;2023-04-08T08:45:58;9.27;;;9.27;;
11510;SDS011;5812;48.864;9.190;2023-04-08T08:48:24;8.43;;;8.43;;
11510;SDS011;5812;48.864;9.190;2023-04-08T08:50:50;8.63;;;8.63;;
11510;SDS011;5812;48.864;9.190;2023-04-08T08:53:16;7.67;;;7.67;;
11510;SDS011;5812;48.864;9.190;2023-04-08T08:55:43;8.83;;;8.83;;
11510;SDS011;5812;48.864;9.190;2023-04-08T08:58:09;9.90;;;9.90;;
11510;SDS011;5812;48.864;9.190;2023-04-08T09:03:14;8.23;;;8.23;;
11510;SDS011;5812;48.864;9.190;2023-04-08T09:05:51;8.67;;;8.67;;
11510;SDS011;5812;48.864;9.190;2023-04-08T09:08:28;9.20;;;9.20;;
11510;SDS011;5812;48.864;9.190;2023-04-08T09:10:56;8.67;;;8.67;;
11510;SDS011;5812;48.864;9.190;2023-04-08T09:13:42;8.37;;;8.37;;
11510;SDS011;5812;48.864;9.190;2023-04-08T09:16:09;8.60;;;8.60;;
11510;SDS011;5812;48.864;9.190;2023-04-08T09:18:36;8.73;;;8.73;;
11510;SDS011;5812;48.864;9.190;2023-04-08T09:21:03;8.83;;;8.83;;
11510;SDS011;5812;48.864;9.190;2023-04-08T09:23:48;8.03;;;8.03;;
11510;SDS011;5812;48.864;9.190;2023-04-08T09:28:42;8.13;;;8.13;;
11510;SDS011;5812;48.864;9.190;2023-04-08T09:31:22;8.23;;;8.23;;
11510;SDS011;5812;48.864;9.190;2023-04-08T09:33:53;8.80;;;8.80;;
11510;SDS011;5812;48.864;9.190;2023-04-08T09:36:20;8.60;;;8.60;;
11510;SDS011;5812;48.864;9.190;2023-04-08T09:38:46;8.43;;;8.43;;
11510;SDS011;5812;48.864;9.190;2023-04-08T09:41:12;9.20;;;9.20;;
11510;SDS011;5812;48.864;9.190;2023-04-08T09:43:46;8.73;;;8.73;;
11510;SDS011;5812;48.864;9.190;2023-04-08T09:46:14;8.33;;;8.33;;
11510;SDS011;5812;48.864;9.190;2023-04-08T09:48:48;8.60;;;8.60;;
11510;SDS011;5812;48.864;9.190;2023-04-08T09:51:35;8.73;;;8.73;;
11510;SDS011;5812;48.864;9.190;2023-04-08T09:54:12;8.40;;;8.40;;
11510;SDS011;5812;48.864;9.190;2023-04-08T09:56:43;9.20;;;9.20;;
11510;SDS011;5812;48.864;9.190;2023-04-08T09:59:13;8.87;;;8.87;;
11510;SDS011;5812;48.864;9.190;2023-04-08T10:01:48;8.33;;;8.33;;
11510;SDS011;5812;48.864;9.190;2023-04-08T10:04:17;8.40;;;8.40;;
11510;SDS011;5812;48.864;9.190;2023-04-08T10:06:47;8.03;;;8.03;;
11510;SDS011;5812;48.864;9.190;2023-04-08T10:09:19;8.27;;;8.27;;
11510;SDS011;5812;48.864;9.190;2023-04-08T10:11:46;7.67;;;7.67;;
11510;SDS011;5812;48.864;9.190;2023-04-08T10:14:12;7.73;;;7.73;;
11510;SDS011;5812;48.864;9.190;2023-04-08T10:16:37;7.93;;;7.93;;
11510;SDS011;5812;48.864;9.190;2023-04-08T10:19:03;7.33;;;7.33;;
11510;SDS011;5812;48.864;9.190;2023-04-08T10:27:40;7.63;;;7.63;;
11510;SDS011;5812;48.864;9.190;2023-04-08T10:30:49;8.13;;;8.13;;
11510;SDS011;5812;48.864;9.190;2023-04-08T10:32:56;8.33;;;8.33;;
11510;SDS011;5812;48.864;9.190;2023-04-08T10:35:33;7.77;;;7.77;;
11510;SDS011;5812;48.864;9.190;2023-04-08T10:38:00;8.10;;;8.10;;
11510;SDS011;5812;48.864;9.190;2023-04-08T10:40:26;8.10;;;8.10;;
11510;SDS011;5812;48.864;9.190;2023-04-08T10:42:55;8.13;;;8.13;;
11510;SDS011;5812;48.864;9.190;2023-04-08T10:45:24;8.40;;;8.40;;
11510;SDS011;5812;48.864;9.190;2023-04-08T10:47:50;8.20;;;8.20;;
11510;SDS011;5812;48.864;9.190;2023-04-08T10:50:16;7.47;;;7.47;;
11510;SDS011;5812;48.864;9.190;2023-04-08T10:52:50;7.97;;;7.97;;
11510;SDS011;5812;48.864;9.190;2023-04-08T10:58:09;8.20;;;8.20;;
11510;SDS011;5812;48.864;9.190;2023-04-08T11:00:37;7.93;;;7.93;;
11510;SDS011;5812;48.864;9.190;2023-04-08T11:03:04;8.13;;;8.13;;
11510;SDS011;5812;48.864;9.190;2023-04-08T11:05:32;8.23;;;8.23;;
11510;SDS011;5812;48.864;9.190;2023-04-08T11:07:58;8.37;;;8.37;;
11510;SDS011;5812;48.864;9.190;2023-04-08T11:10:24;7.23;;;7.23;;
11510;SDS011;5812;48.864;9.190;2023-04-08T11:12:51;7.80;;;7.80;;
11510;SDS011;5812;48.864;9.190;2023-04-08T11:15:18;7.20;;;7.20;;
11510;SDS011;5812;48.864;9.190;2023-04-08T11:17:45;7.43;;;7.43;;
11510;SDS011;5812;48.864;9.190;2023-04-08T11:20:11;7.37;;;7.37;;
11510;SDS011;5812;48.864;9.190;2023-04-08T11:22:38;8.07;;;8.07;;
11510;SDS011;5812;48.864;9.190;2023-04-08T11:25:04;7.33;;;7.33;;
11510;SDS011;5812;48.864;9.190;2023-04-08T11:27:32;7.40;;;7.40;;
11510;SDS011;5812;48.864;9.190;2023-04-08T11:30:00;7.17;;;7.17;;
11510;SDS011;5812;48.864;9.190;2023-04-08T11:32:26;7.00;;;7.00;;
11510;SDS011;5812;48.864;9.190;2023-04-08T11:35:03;7.17;;;7.17;;
11510;SDS011;5812;48.864;9.190;2023-04-08T11:37:39;7.03;;;7.03;;
11510;SDS011;5812;48.864;9.190;2023-04-08T11:40:06;7.20;;;7.20;;
11510;SDS011;5812;48.864;9.190;2023-04-08T11:42:33;10.23;;;10.23;;
11510;SDS011;5812;48.864;9.190;2023-04-08T11:44:58;7.00;;;7.00;;
11510;SDS011;5812;48.864;9.190;2023-04-08T11:47:31;8.47;;;8.47;;
11510;SDS011;5812;48.864;9.190;2023-04-08T11:49:57;6.70;;;6.70;;
11510;SDS011;5812;48.864;9.190;2023-04-08T11:52:39;7.30;;;7.30;;
11510;SDS011;5812;48.864;9.190;2023-04-08T11:55:12;7.03;;;7.03;;
11510;SDS011;5812;48.864;9.190;2023-04-08T11:57:47;7.13;;;7.13;;
11510;SDS011;5812;48.864;9.190;2023-04-08T12:00:12;7.43;;;7.43;;
11510;SDS011;5812;48.864;9.190;2023-04-08T12:02:38;6.93;;;6.93;;
11510;SDS011;5812;48.864;9.190;2023-04-08T12:05:04;6.53;;;6.53;;
11510;SDS011;5812;48.864;9.190;2023-04-08T12:07:31;7.53;;;7.53;;
11510;SDS011;5812;48.864;9.190;2023-04-08T12:09:56;7.47;;;7.47;;
11510;SDS011;5812;48.864;9.190;2023-04-08T12:12:22;7.27;;;7.27;;
11510;SDS011;5812;48.864;9.190;2023-04-08T12:14:48;7.03;;;7.03;;
11510;SDS011;5812;48.864;9.190;2023-04-08T12:17:13;6.90;;;6.90;;
11510;SDS011;5812;48.864;9.190;2023-04-08T12:19:39;6.80;;;6.80;;
11510;SDS011;5812;48.864;9.190;2023-04-08T12:22:05;6.87;;;6.87;;
11510;SDS011;5812;48.864;9.190;2023-04-08T12:24:30;5.93;;;5.93;;
11510;SDS011;5812;48.864;9.190;2023-04-08T12:26:56;6.63;;;6.63;;
11510;SDS011;5812;48.864;9.190;2023-04-08T12:29:22;6.63;;;6.63;;
11510;SDS011;5812;48.864;9.190;2023-04-08T12:31:47;6.83;;;6.83;;
11510;SDS011;5812;48.864;9.190;2023-04-08T12:34:13;6.70;;;6.70;;
11510;SDS011;5812;48.864;9.190;2023-04-08T12:36:38;7.17;;;7.17;;
11510;SDS011;5812;48.864;9.190;2023-04-08T12:39:05;7.03;;;7.03;;
11510;SDS011;5812;48.864;9.190;2023-04-08T12:41:31;6.60;;;6.60;;
11510;SDS011;5812;48.864;9.190;2023-04-08T12:43:57;7.03;;;7.03;;
11510;SDS011;5812;48.864;9.190;2023-04-08T12:46:23;6.77;;;6.77;;
11510;SDS011;5812;48.864;9.190;2023-04-08T12:48:48;6.03;;;6.03;;
11510;SDS011;5812;48.864;9.190;2023-04-08T12:51:14;6.60;;;6.60;;
11510;SDS011;5812;48.864;9.190;2023-04-08T12:53:39;7.27;;;7.27;;
11510;SDS011;5812;48.864;9.190;2023-04-08T12:56:05;7.17;;;7.17;;
11510;SDS011;5812;48.864;9.190;2023-04-08T12:58:31;6.37;;;6.37;;
11510;SDS011;5812;48.864;9.190;2023-04-08T13:00:56;7.00;;;7.00;;
11510;SDS011;5812;48.864;9.190;2023-04-08T13:03:22;6.47;;;6.47;;
11510;SDS011;5812;48.864;9.190;2023-04-08T13:05:47;7.13;;;7.13;;
11510;SDS011;5812;48.864;9.190;2023-04-08T13:08:13;6.87;;;6.87;;
11510;SDS011;5812;48.864;9.190;2023-04-08T13:10:40;7.13;;;7.13;;
11510;SDS011;5812;48.864;9.190;2023-04-08T13:13:06;7.17;;;7.17;;
11510;SDS011;5812;48.864;9.190;2023-04-08T13:15:32;9.00;;;9.00;;
11510;SDS011;5812;48.864;9.190;2023-04-08T13:17:57;8.27;;;8.27;;
11510;SDS011;5812;48.864;9.190;2023-04-08T13:20:23;6.83;;;6.83;;
11510;SDS011;5812;48.864;9.190;2023-04-08T13:22:50;6.70;;;6.70;;
11510;SDS011;5812;48.864;9.190;2023-04-08T13:25:16;7.73;;;7.73;;
11510;SDS011;5812;48.864;9.190;2023-04-08T13:27:42;6.70;;;6.70;;
11510;SDS011;5812;48.864;9.190;2023-04-08T13:30:08;6.93;;;6.93;;
11510;SDS011;5812;48.864;9.190;2023-04-08T13:32:34;6.83;;;6.83;;
11510;SDS011;5812;48.864;9.190;2023-04-08T13:35:00;6.87;;;6.87;;
11510;SDS011;5812;48.864;9.190;2023-04-08T13:37:26;7.60;;;7.60;;
11510;SDS011;5812;48.864;9.190;2023-04-08T13:39:52;7.03;;;7.03;;
11510;SDS011;5812;48.864;9.190;2023-04-08T13:42:18;7.67;;;7.67;;
11510;SDS011;5812;48.864;9.190;2023-04-08T13:44:43;6.90;;;6.90;;
11510;SDS011;5812;48.864;9.190;2023-04-08T13:47:09;6.77;;;6.77;;
11510;SDS011;5812;48.864;9.190;2023-04-08T13:49:35;6.97;;;6.97;;
11510;SDS011;5812;48.864;9.190;2023-04-08T13:52:01;6.77;;;6.77;;
11510;SDS011;5812;48.864;9.190;2023-04-08T13:54:26;6.40;;;6.40;;
11510;SDS011;5812;48.864;9.190;2023-04-08T13:56:52;6.20;;;6.20;;
11510;SDS011;5812;48.864;9.190;2023-04-08T13:59:17;6.23;;;6.23;;
11510;SDS011;5812;48.864;9.190;2023-04-08T14:01:43;6.37;;;6.37;;
11510;SDS011;5812;48.864;9.190;2023-04-08T14:04:09;6.23;;;6.23;;
11510;SDS011;5812;48.864;9.190;2023-04-08T14:06:34;6.13;;;6.13;;
11510;SDS011;5812;48.864;9.190;2023-04-08T14:09:00;6.70;;;6.70;;
11510;SDS011;5812;48.864;9.190;2023-04-08T14:11:26;6.03;;;6.03;;
11510;SDS011;5812;48.864;9.190;2023-04-08T14:13:51;6.53;;;6.53;;
11510;SDS011;5812;48.864;9.190;2023-04-08T14:16:17;5.97;;;5.97;;
11510;SDS011;5812;48.864;9.190;2023-04-08T14:18:43;6.07;;;6.07;;
11510;SDS011;5812;48.864;9.190;2023-04-08T14:21:09;6.20;;;6.20;;
11510;SDS011;5812;48.864;9.190;2023-04-08T14:23:36;6.13;;;6.13;;
11510;SDS011;5812;48.864;9.190;2023-04-08T14:26:02;6.23;;;6.23;;
11510;SDS011;5812;48.864;9.190;2023-04-08T14:28:27;5.30;;;5.30;;
11510;SDS011;5812;48.864;9.190;2023-04-08T14:30:53;5.67;;;5.67;;
11510;SDS011;5812;48.864;9.190;2023-04-08T14:33:18;5.60;;;5.60;;
11510;SDS011;5812;48.864;9.190;2023-04-08T14:35:44;5.37;;;5.37;;
11510;SDS011;5812;48.864;9.190;2023-04-08T14:38:10;5.30;;;5.30;;
11510;SDS011;5812;48.864;9.190;2023-04-08T14:40:35;5.20;;;5.20;;
11510;SDS011;5812;48.864;9.190;2023-04-08T14:43:01;5.73;;;5.73;;
11510;SDS011;5812;48.864;9.190;2023-04-08T14:45:27;5.40;;;5.40;;
11510;SDS011;5812;48.864;9.190;2023-04-08T14:47:52;4.93;;;4.93;;
11510;SDS011;5812;48.864;9.190;2023-04-08T14:50:18;5.07;;;5.07;;
11510;SDS011;5812;48.864;9.190;2023-04-08T14:52:43;4.47;;;4.47;;
11510;SDS011;5812;48.864;9.190;2023-04-08T14:55:12;4.53;;;4.53;;
11510;SDS011;5812;48.864;9.190;2023-04-08T14:57:37;4.80;;;4.80;;
11510;SDS011;5812;48.864;9.190;2023-04-08T15:00:03;5.40;;;5.40;;
11510;SDS011;5812;48.864;9.190;2023-04-08T15:02:29;4.57;;;4.57;;
11510;SDS011;5812;48.864;9.190;2023-04-08T15:04:55;4.50;;;4.50;;